createdAt,value
2018-09-15T00:01:06.731Z,7.92
2018-09-15T00:03:47.345Z,6.50
2018-09-15T00:06:27.881Z,8.48
2018-09-15T00:08:56.153Z,8.18
2018-09-15T00:11:24.477Z,9.18
2018-09-15T00:14:05.491Z,8.35
2018-09-15T00:16:46.325Z,9.10
2018-09-15T00:19:26.861Z,9.48
2018-09-15T00:22:07.572Z,9.63
2018-09-15T00:24:48.189Z,8.80
2018-09-15T00:27:31.823Z,7.72
2018-09-15T00:30:12.359Z,10.43
2018-09-15T00:32:40.675Z,9.55
2018-09-15T00:35:21.067Z,9.40
2018-09-15T00:37:49.325Z,9.88
2018-09-15T00:40:30.237Z,10.43
2018-09-15T00:43:10.909Z,9.55
2018-09-15T00:45:51.702Z,9.20
2018-09-15T00:48:32.321Z,9.25
2018-09-15T00:51:00.754Z,8.70
2018-09-15T00:53:40.982Z,8.93
2018-09-15T00:56:09.223Z,10.82
2018-09-15T00:58:37.522Z,13.32
2018-09-15T01:01:18.044Z,8.70
2018-09-15T01:03:58.757Z,9.88
2018-09-15T01:06:28.050Z,9.88
2018-09-15T01:09:08.393Z,9.73
2018-09-15T01:11:36.696Z,9.30
2018-09-15T01:14:04.941Z,14.40
2018-09-15T01:16:41.099Z,13.35
2018-09-15T01:19:09.987Z,19.37
2018-09-15T01:21:45.898Z,11.38
2018-09-15T01:24:26.781Z,10.53
2018-09-15T01:27:07.404Z,11.00
2018-09-15T01:29:42.484Z,10.85
2018-09-15T01:32:22.734Z,11.53
2018-09-15T01:34:50.936Z,9.80
2018-09-15T01:37:19.221Z,9.38
2018-09-15T01:40:00.064Z,12.00
2018-09-15T01:42:28.276Z,8.83
2018-09-15T01:44:58.965Z,8.90
2018-09-15T01:47:31.113Z,9.08
2018-09-15T01:50:11.874Z,8.30
2018-09-15T01:52:41.612Z,9.88
2018-09-15T01:55:09.830Z,12.03
2018-09-15T01:57:38.080Z,9.08
2018-09-15T02:00:06.240Z,10.15
2018-09-15T02:02:34.601Z,10.65
2018-09-15T02:05:06.322Z,12.03
2018-09-15T02:07:34.521Z,9.65
2018-09-15T02:10:15.015Z,8.73
2018-09-15T02:12:43.234Z,8.90
2018-09-15T02:15:11.511Z,9.25
2018-09-15T02:17:52.232Z,9.98
2018-09-15T02:20:32.878Z,9.23
2018-09-15T02:23:13.659Z,8.00
2018-09-15T02:25:54.102Z,11.22
2018-09-15T02:28:23.004Z,9.75
2018-09-15T02:30:51.846Z,13.85
2018-09-15T02:33:32.037Z,12.07
2018-09-15T02:36:12.647Z,10.30
2018-09-15T02:38:53.241Z,9.78
2018-09-15T02:41:26.103Z,9.85
2018-09-15T02:43:54.357Z,9.85
2018-09-15T02:46:35.416Z,9.90
2018-09-15T02:49:15.996Z,8.90
2018-09-15T02:51:50.566Z,9.55
2018-09-15T02:54:31.312Z,10.15
2018-09-15T02:56:59.865Z,10.70
2018-09-15T02:59:28.057Z,11.20
2018-09-15T03:02:08.493Z,11.85
2018-09-15T03:04:37.736Z,15.43
2018-09-15T03:07:17.921Z,14.90
2018-09-15T03:09:47.228Z,12.30
2018-09-15T03:12:28.401Z,13.25
2018-09-15T03:15:09.087Z,10.75
2018-09-15T03:17:37.277Z,9.43
2018-09-15T03:20:18.261Z,10.82
2018-09-15T03:22:46.509Z,9.63
2018-09-15T03:25:14.705Z,10.15
2018-09-15T03:27:55.271Z,9.70
2018-09-15T03:30:28.980Z,12.28
2018-09-15T03:32:59.282Z,10.78
2018-09-15T03:35:33.850Z,10.90
2018-09-15T03:38:02.155Z,14.47
2018-09-15T03:40:31.402Z,10.35
2018-09-15T03:42:59.586Z,10.32
2018-09-15T03:45:28.574Z,11.10
2018-09-15T03:48:09.192Z,10.50
2018-09-15T03:50:37.369Z,9.73
2018-09-15T03:53:17.602Z,9.70
2018-09-15T03:55:58.371Z,10.63
2018-09-15T03:58:38.933Z,11.33
2018-09-15T04:01:19.527Z,11.53
2018-09-15T04:03:59.993Z,12.47
2018-09-15T04:06:40.770Z,11.45
2018-09-15T04:09:10.309Z,11.70
2018-09-15T04:11:51.031Z,9.93
2018-09-15T04:14:20.277Z,11.53
2018-09-15T04:16:48.545Z,13.25
2018-09-15T04:19:28.884Z,12.50
2018-09-15T04:22:09.376Z,12.40
2018-09-15T04:24:50.062Z,11.12
2018-09-15T04:27:30.609Z,11.90
2018-09-15T04:30:11.275Z,13.48
2018-09-15T04:32:51.785Z,13.62
2018-09-15T04:35:32.376Z,15.78
2018-09-15T04:38:12.949Z,16.48
2018-09-15T04:47:38.537Z,18.48
2018-09-15T04:50:19.205Z,21.10
2018-09-15T04:52:49.664Z,18.35
2018-09-15T04:55:18.332Z,18.30
2018-09-15T04:57:50.389Z,18.73
2018-09-15T05:00:18.657Z,16.87
2018-09-15T05:02:50.661Z,19.42
2018-09-15T05:05:18.906Z,15.65
2018-09-15T05:07:59.556Z,13.18
2018-09-15T05:10:28.972Z,14.90
2018-09-15T05:13:00.907Z,16.77
2018-09-15T05:15:29.046Z,20.15
2018-09-15T05:18:04.145Z,15.93
2018-09-15T05:20:44.322Z,16.40
2018-09-15T05:23:16.078Z,15.40
2018-09-15T05:25:44.363Z,15.85
2018-09-15T05:28:12.611Z,14.45
2018-09-15T05:30:40.831Z,12.45
2018-09-15T05:33:09.589Z,12.33
2018-09-15T05:35:37.879Z,15.68
2018-09-15T05:38:06.140Z,13.08
2018-09-15T05:40:35.004Z,13.15
2018-09-15T05:43:03.753Z,10.63
2018-09-15T05:45:44.910Z,12.80
2018-09-15T05:48:25.353Z,14.07
2018-09-15T05:50:53.663Z,12.33
2018-09-15T05:53:34.061Z,12.82
2018-09-15T05:56:02.345Z,12.03
2018-09-15T05:58:30.721Z,11.83
2018-09-15T06:00:59.186Z,10.20
2018-09-15T06:03:29.508Z,11.25
2018-09-15T06:06:09.731Z,11.50
2018-09-15T06:08:37.931Z,10.55
2018-09-15T06:11:15.313Z,11.80
2018-09-15T06:13:44.536Z,10.55
2018-09-15T06:16:12.817Z,12.80
2018-09-15T06:18:41.341Z,13.18
2018-09-15T06:21:09.663Z,10.95
2018-09-15T06:23:50.689Z,10.35
2018-09-15T06:26:19.215Z,16.85
2018-09-15T06:29:00.112Z,13.48
2018-09-15T06:31:40.921Z,9.98
2018-09-15T06:34:21.671Z,10.80
2018-09-15T06:36:50.093Z,11.20
2018-09-15T06:39:30.709Z,10.20
2018-09-15T06:42:11.205Z,11.33
2018-09-15T06:44:51.874Z,15.45
2018-09-15T06:47:20.270Z,14.47
2018-09-15T06:50:01.344Z,11.83
2018-09-15T06:52:41.950Z,12.90
2018-09-15T06:55:22.837Z,15.85
2018-09-15T06:58:03.429Z,14.23
2018-09-15T07:00:31.676Z,14.30
2018-09-15T07:03:13.757Z,15.50
2018-09-15T07:05:54.258Z,13.28
2018-09-15T07:08:27.540Z,13.48
2018-09-15T07:11:08.555Z,16.57
2018-09-15T07:13:36.826Z,13.70
2018-09-15T07:16:07.333Z,12.95
2018-09-15T07:18:48.437Z,11.68
2018-09-15T07:21:29.132Z,13.62
2018-09-15T07:23:57.369Z,19.67
2018-09-15T07:26:26.713Z,14.25
2018-09-15T07:28:55.978Z,14.45
2018-09-15T07:31:24.366Z,14.07
2018-09-15T07:33:52.617Z,16.77
2018-09-15T07:36:24.627Z,13.20
2018-09-15T07:38:53.405Z,11.25
2018-09-15T07:41:21.702Z,10.23
2018-09-15T07:43:54.214Z,10.05
2018-09-15T07:46:22.658Z,8.93
2018-09-15T07:48:50.973Z,9.65
2018-09-15T07:51:19.211Z,7.62
2018-09-15T07:53:47.466Z,7.80
2018-09-15T07:56:27.768Z,7.70
2018-09-15T07:58:56.046Z,7.85
2018-09-15T08:01:24.313Z,8.25
2018-09-15T08:04:04.650Z,11.50
2018-09-15T08:06:33.255Z,8.90
2018-09-15T08:09:06.710Z,9.05
2018-09-15T08:11:36.692Z,5.95
2018-09-15T08:14:05.014Z,8.03
2018-09-15T08:16:34.218Z,6.72
2018-09-15T08:19:02.470Z,7.15
2018-09-15T08:21:31.093Z,8.00
2018-09-15T08:24:00.505Z,7.62
2018-09-15T08:26:28.958Z,5.75
2018-09-15T08:28:57.152Z,3.55
2018-09-15T08:31:25.423Z,5.78
2018-09-15T08:33:53.636Z,4.70
2018-09-15T08:36:23.252Z,5.95
2018-09-15T08:38:51.608Z,6.85
2018-09-15T08:41:32.197Z,6.58
2018-09-15T08:44:12.846Z,5.60
2018-09-15T08:46:53.604Z,4.22
2018-09-15T08:49:21.868Z,3.83
2018-09-15T08:51:50.456Z,4.08
2018-09-15T08:54:30.985Z,5.72
2018-09-15T08:56:59.520Z,4.80
2018-09-15T08:59:27.761Z,8.60
2018-09-15T09:01:56.782Z,4.45
2018-09-15T09:04:35.931Z,4.60
2018-09-15T09:07:04.173Z,4.95
2018-09-15T09:09:32.941Z,5.05
2018-09-15T09:12:01.219Z,5.42
2018-09-15T09:14:29.670Z,5.30
2018-09-15T09:16:57.906Z,4.22
2018-09-15T09:19:26.187Z,6.60
2018-09-15T09:21:54.822Z,8.58
2018-09-15T09:24:23.057Z,5.67
2018-09-15T09:26:51.319Z,5.28
2018-09-15T09:29:31.895Z,14.93
2018-09-15T09:32:00.133Z,7.08
2018-09-15T09:34:40.518Z,5.00
2018-09-15T09:37:08.764Z,4.40
2018-09-15T09:39:37.006Z,7.53
2018-09-15T09:42:05.645Z,4.33
2018-09-15T09:44:34.685Z,3.67
2018-09-15T09:47:02.902Z,3.83
2018-09-15T09:49:32.750Z,5.15
2018-09-15T09:52:03.020Z,5.40
2018-09-15T09:54:32.069Z,5.60
2018-09-15T09:57:00.974Z,2.85
2018-09-15T09:59:29.636Z,4.00
2018-09-15T10:02:13.584Z,7.37
2018-09-15T10:04:45.588Z,6.28
2018-09-15T10:07:13.911Z,4.15
2018-09-15T10:09:54.496Z,4.28
2018-09-15T10:12:35.821Z,3.45
2018-09-15T10:15:16.600Z,5.20
2018-09-15T10:17:57.257Z,3.85
2018-09-15T10:20:25.716Z,3.27
2018-09-15T10:23:00.771Z,2.58
2018-09-15T10:25:41.482Z,5.97
2018-09-15T10:28:22.255Z,3.80
2018-09-15T10:30:50.607Z,3.67
2018-09-15T10:33:18.905Z,2.95
2018-09-15T10:35:47.157Z,2.70
2018-09-15T10:38:28.020Z,4.20
2018-09-15T10:41:08.485Z,1.65
2018-09-15T10:43:36.851Z,2.08
2018-09-15T10:46:17.521Z,6.08
2018-09-15T10:48:58.246Z,3.77
2018-09-15T10:51:38.731Z,2.05
2018-09-15T10:54:19.403Z,2.35
2018-09-15T10:57:00.024Z,4.03
2018-09-15T10:59:40.962Z,4.65
2018-09-15T11:02:15.597Z,2.50
2018-09-15T11:04:45.947Z,2.75
2018-09-15T11:07:18.110Z,2.20
2018-09-15T11:09:58.884Z,4.17
2018-09-15T11:12:39.463Z,2.50
2018-09-15T11:15:20.042Z,3.35
2018-09-15T11:18:00.620Z,3.22
2018-09-15T11:20:41.819Z,1.55
2018-09-15T11:23:23.597Z,2.33
2018-09-15T11:26:06.778Z,2.42
2018-09-15T11:28:35.183Z,2.17
2018-09-15T11:31:16.081Z,2.37
2018-09-15T11:33:56.718Z,2.55
2018-09-15T11:36:24.939Z,4.30
2018-09-15T11:38:53.226Z,1.98
2018-09-15T11:41:22.017Z,2.95
2018-09-15T11:44:02.789Z,2.47
2018-09-15T11:46:43.553Z,3.75
2018-09-15T11:49:24.341Z,6.22
2018-09-15T11:51:52.588Z,2.00
2018-09-15T11:54:22.044Z,6.25
2018-09-15T11:57:02.481Z,1.95
2018-09-15T11:59:30.732Z,1.98
2018-09-15T12:02:11.105Z,2.30
2018-09-15T12:04:51.597Z,2.45
2018-09-15T12:07:32.173Z,3.60
2018-09-15T12:10:12.662Z,1.95
2018-09-15T12:12:40.942Z,2.10
2018-09-15T12:15:09.183Z,3.50
2018-09-15T12:17:37.507Z,4.20
2018-09-15T12:20:05.728Z,1.92
2018-09-15T12:22:46.413Z,2.25
2018-09-15T12:25:26.940Z,4.15
2018-09-15T12:28:07.586Z,2.58
2018-09-15T12:30:35.894Z,4.40
2018-09-15T12:33:04.195Z,2.05
2018-09-15T12:35:32.513Z,2.20
2018-09-15T12:38:00.790Z,2.08
2018-09-15T12:40:34.531Z,1.57
2018-09-15T12:43:14.770Z,2.35
2018-09-15T12:45:55.449Z,2.95
2018-09-15T12:48:36.158Z,2.30
2018-09-15T12:51:07.781Z,4.85
2018-09-15T12:53:48.614Z,1.37
2018-09-15T12:56:16.891Z,3.77
2018-09-15T12:58:58.368Z,1.22
2018-09-15T13:01:38.661Z,1.72
2018-09-15T13:04:19.086Z,3.25
2018-09-15T13:06:47.334Z,2.30
2018-09-15T13:09:28.476Z,1.60
2018-09-15T13:12:09.176Z,1.30
2018-09-15T13:14:37.387Z,1.30
2018-09-15T13:17:17.508Z,4.65
2018-09-15T13:19:58.108Z,1.52
2018-09-15T13:22:38.747Z,2.58
2018-09-15T13:25:19.246Z,2.22
2018-09-15T13:27:59.988Z,6.25
2018-09-15T13:30:41.151Z,1.60
2018-09-15T13:33:23.575Z,2.35
2018-09-15T13:35:51.786Z,2.08
2018-09-15T13:38:32.466Z,2.98
2018-09-15T13:41:00.720Z,2.27
2018-09-15T13:43:28.961Z,4.10
2018-09-15T13:46:09.797Z,3.37
2018-09-15T13:48:50.555Z,2.75
2018-09-15T13:51:31.039Z,3.20
2018-09-15T13:54:11.672Z,4.85
2018-09-15T13:56:52.127Z,2.92
2018-09-15T13:59:20.510Z,2.20
2018-09-15T14:01:48.732Z,4.17
2018-09-15T14:04:16.984Z,2.67
2018-09-15T14:06:45.625Z,2.58
2018-09-15T14:09:14.153Z,3.17
2018-09-15T14:11:42.365Z,2.50
2018-09-15T14:14:23.334Z,5.30
2018-09-15T14:16:55.525Z,1.95
2018-09-15T14:19:25.742Z,1.72
2018-09-15T14:21:55.120Z,2.55
2018-09-15T14:24:23.349Z,5.25
2018-09-15T14:26:52.401Z,2.72
2018-09-15T14:29:22.116Z,2.40
2018-09-15T14:32:02.415Z,2.85
2018-09-15T14:34:43.128Z,2.60
2018-09-15T14:37:13.934Z,4.42
2018-09-15T14:39:54.412Z,1.95
2018-09-15T14:42:22.796Z,4.92
2018-09-15T14:45:03.881Z,1.75
2018-09-15T14:47:44.347Z,4.12
2018-09-15T14:50:24.996Z,2.37
2018-09-15T14:53:05.494Z,5.50
2018-09-15T14:55:46.110Z,6.40
2018-09-15T14:58:26.682Z,3.65
2018-09-15T15:01:07.443Z,2.12
2018-09-15T15:03:35.822Z,5.80
2018-09-15T15:06:04.076Z,4.05
2018-09-15T15:08:32.357Z,5.65
2018-09-15T15:11:01.165Z,3.30
2018-09-15T15:13:42.293Z,4.72
2018-09-15T15:16:10.573Z,4.00
2018-09-15T15:18:51.621Z,2.87
2018-09-15T15:21:32.405Z,2.25
2018-09-15T15:24:00.703Z,4.78
2018-09-15T15:26:29.460Z,2.52
2018-09-15T15:29:11.793Z,4.35
2018-09-15T15:31:54.185Z,1.85
2018-09-15T15:34:22.537Z,3.77
2018-09-15T15:37:03.221Z,2.55
2018-09-15T15:39:31.498Z,3.90
2018-09-15T15:42:11.776Z,3.25
2018-09-15T15:44:40.638Z,2.10
2018-09-15T15:47:21.396Z,3.27
2018-09-15T15:50:02.078Z,4.90
2018-09-15T15:52:43.034Z,3.80
2018-09-15T15:55:11.403Z,2.22
2018-09-15T15:57:52.478Z,3.52
2018-09-15T16:00:32.656Z,2.35
2018-09-15T16:03:13.299Z,4.00
2018-09-15T16:05:53.861Z,5.42
2018-09-15T16:08:34.166Z,2.30
2018-09-15T16:11:02.705Z,2.10
2018-09-15T16:13:43.483Z,3.40
2018-09-15T16:16:11.693Z,4.95
2018-09-15T16:18:40.282Z,1.90
2018-09-15T16:21:12.552Z,2.40
2018-09-15T16:23:40.802Z,3.33
2018-09-15T16:26:21.596Z,2.40
2018-09-15T16:28:49.999Z,4.28
2018-09-15T16:31:31.018Z,4.22
2018-09-15T16:34:11.758Z,3.62
2018-09-15T16:36:45.974Z,3.00
2018-09-15T16:39:26.967Z,2.92
2018-09-15T16:41:55.334Z,3.52
2018-09-15T16:44:23.604Z,5.28
2018-09-15T16:47:04.915Z,3.90
2018-09-15T16:49:33.169Z,4.30
2018-09-15T16:52:03.414Z,3.10
2018-09-15T16:54:43.553Z,2.72
2018-09-15T16:57:24.233Z,3.65
2018-09-15T17:00:04.896Z,2.90
2018-09-15T17:02:33.095Z,4.70
2018-09-15T17:05:01.337Z,4.10
2018-09-15T17:07:29.547Z,3.08
2018-09-15T17:10:09.756Z,3.55
2018-09-15T17:12:50.535Z,1.90
2018-09-15T17:15:19.418Z,3.25
2018-09-15T17:17:47.614Z,2.10
2018-09-15T17:20:15.831Z,1.30
2018-09-15T17:22:56.457Z,3.60
2018-09-15T17:25:24.732Z,1.98
2018-09-15T17:27:52.931Z,3.52
2018-09-15T17:30:21.587Z,2.83
2018-09-15T17:32:50.161Z,6.40
2018-09-15T17:35:18.674Z,5.35
2018-09-15T17:37:59.461Z,1.98
2018-09-15T17:40:40.363Z,1.95
2018-09-15T17:43:08.626Z,3.77
2018-09-15T17:45:49.463Z,2.47
2018-09-15T17:48:30.038Z,3.95
2018-09-15T17:51:10.729Z,5.62
2018-09-15T17:53:38.955Z,3.90
2018-09-15T17:56:19.229Z,3.52
2018-09-15T17:58:59.835Z,2.35
2018-09-15T18:01:40.315Z,2.47
2018-09-15T18:04:20.924Z,5.67
2018-09-15T18:06:49.174Z,2.52
2018-09-15T18:09:30.479Z,3.05
2018-09-15T18:11:58.735Z,2.65
2018-09-15T18:14:27.280Z,3.20
2018-09-15T18:17:07.565Z,3.47
2018-09-15T18:19:48.116Z,2.98
2018-09-15T18:22:16.405Z,2.35
2018-09-15T18:24:49.289Z,2.72
2018-09-15T18:27:18.938Z,5.35
2018-09-15T18:29:47.365Z,3.62
2018-09-15T18:32:15.760Z,6.75
2018-09-15T18:34:56.206Z,4.67
2018-09-15T18:37:24.438Z,4.15
2018-09-15T18:40:05.544Z,7.37
2018-09-15T18:42:46.128Z,4.87
2018-09-15T18:45:15.579Z,6.25
2018-09-15T18:47:44.230Z,2.72
2018-09-15T18:50:13.067Z,3.30
2018-09-15T18:52:41.408Z,3.08
2018-09-15T18:55:09.610Z,2.90
2018-09-15T18:57:37.892Z,3.92
2018-09-15T19:00:18.255Z,2.55
2018-09-15T19:02:58.731Z,4.55
2018-09-15T19:05:39.370Z,3.27
2018-09-15T19:08:08.489Z,2.50
2018-09-15T19:10:36.741Z,2.75
2018-09-15T19:13:11.674Z,3.20
2018-09-15T19:15:52.215Z,5.85
2018-09-15T19:18:20.470Z,5.05
2018-09-15T19:20:48.722Z,2.60
2018-09-15T19:23:24.022Z,2.05
2018-09-15T19:25:52.253Z,4.58
2018-09-15T19:28:20.553Z,2.33
2018-09-15T19:31:00.721Z,5.78
2018-09-15T19:33:29.598Z,2.90
2018-09-15T19:36:10.113Z,2.02
2018-09-15T19:38:50.745Z,2.65
2018-09-15T19:41:26.694Z,3.40
2018-09-15T19:43:55.018Z,5.12
2018-09-15T19:46:36.217Z,3.58
2018-09-15T19:49:04.519Z,3.35
2018-09-15T19:51:45.242Z,2.87
2018-09-15T19:54:25.681Z,3.52
2018-09-15T19:57:06.283Z,2.50
2018-09-15T19:59:34.492Z,3.72
2018-09-15T20:02:02.820Z,2.92
2018-09-15T20:04:31.115Z,3.55
2018-09-15T20:07:11.310Z,4.08
2018-09-15T20:09:39.544Z,3.50
2018-09-15T20:12:20.658Z,3.22
2018-09-15T20:15:01.153Z,3.92
2018-09-15T20:17:41.747Z,2.90
2018-09-15T20:20:23.176Z,3.45
2018-09-15T20:22:53.417Z,6.80
2018-09-15T20:25:21.920Z,2.15
2018-09-15T20:28:02.835Z,3.47
2018-09-15T20:30:43.456Z,5.67
2018-09-15T20:33:24.147Z,2.15
2018-09-15T20:36:04.654Z,2.37
2018-09-15T20:38:45.335Z,3.40
2018-09-15T20:41:25.674Z,2.65
2018-09-15T20:44:06.292Z,2.90
2018-09-15T20:46:34.622Z,2.65
2018-09-15T20:49:15.703Z,4.65
2018-09-15T20:51:56.685Z,2.35
2018-09-15T20:54:37.230Z,2.40
2018-09-15T20:57:17.885Z,4.03
2018-09-15T20:59:58.418Z,3.10
2018-09-15T21:02:39.279Z,3.25
2018-09-15T21:05:19.969Z,3.72
2018-09-15T21:08:00.512Z,5.22
2018-09-15T21:10:41.274Z,5.17
2018-09-15T21:13:21.845Z,2.95
2018-09-15T21:16:02.687Z,5.35
2018-09-15T21:18:43.283Z,4.55
2018-09-15T21:21:23.911Z,6.20
2018-09-15T21:24:04.550Z,4.55
2018-09-15T21:26:32.849Z,4.05
2018-09-15T21:29:14.068Z,3.75
2018-09-15T21:31:42.334Z,6.70
2018-09-15T21:34:10.593Z,3.45
2018-09-15T21:36:50.896Z,4.58
2018-09-15T21:39:31.513Z,3.95
2018-09-15T21:42:12.282Z,4.05
2018-09-15T21:44:40.537Z,4.03
2018-09-15T21:47:08.947Z,3.42
2018-09-15T21:49:50.010Z,4.00
2018-09-15T21:52:18.311Z,6.78
2018-09-15T21:54:59.840Z,4.47
2018-09-15T21:57:28.116Z,5.40
2018-09-15T22:00:08.836Z,4.03
2018-09-15T22:04:18.669Z,4.10
2018-09-15T22:06:59.730Z,3.83
2018-09-15T22:09:28.022Z,4.12
2018-09-15T22:11:56.318Z,3.20
2018-09-15T22:14:36.750Z,4.55
2018-09-15T22:17:17.385Z,3.60
2018-09-15T22:19:45.643Z,4.05
2018-09-15T22:22:25.919Z,4.22
2018-09-15T22:25:06.685Z,3.75
2018-09-15T22:27:47.498Z,3.35
2018-09-15T22:30:15.867Z,6.10
2018-09-15T22:32:44.218Z,5.37
2018-09-15T22:35:14.073Z,4.15
2018-09-15T22:37:44.308Z,3.65
2018-09-15T22:40:25.172Z,4.67
2018-09-15T22:42:53.533Z,4.28
2018-09-15T22:45:34.512Z,6.92
2018-09-15T22:48:02.817Z,4.72
2018-09-15T22:50:30.995Z,4.90
2018-09-15T22:52:59.301Z,5.75
2018-09-15T22:55:40.192Z,4.97
2018-09-15T22:58:21.220Z,7.80
2018-09-15T23:01:02.850Z,5.95
2018-09-15T23:03:38.508Z,7.70
2018-09-15T23:06:07.946Z,6.47
2018-09-15T23:08:48.975Z,7.20
2018-09-15T23:11:17.270Z,8.20
2018-09-15T23:13:58.150Z,7.53
2018-09-15T23:16:38.986Z,7.08
2018-09-15T23:19:19.301Z,7.30
2018-09-15T23:21:59.890Z,7.53
2018-09-15T23:24:40.489Z,5.95
2018-09-15T23:27:21.449Z,6.72
2018-09-15T23:30:01.872Z,6.10
2018-09-15T23:32:42.477Z,6.33
2018-09-15T23:35:10.698Z,7.00
2018-09-15T23:37:40.804Z,5.80
2018-09-15T23:40:10.388Z,6.60
2018-09-15T23:42:51.118Z,8.83
2018-09-15T23:45:21.505Z,6.03
2018-09-15T23:47:49.757Z,6.20
2018-09-15T23:50:30.414Z,6.15
2018-09-15T23:53:10.901Z,7.15
2018-09-15T23:55:39.134Z,11.22
2018-09-15T23:58:09.537Z,9.45
